Map

Track Data

SID SEASON NUMBER BASIN SUBBASIN NAME ISO_TIME NATURE LAT LON WMO_WIND WMO_PRES WMO_AGENCY TRACK_TYPE DIST2LAND LANDFALL IFLAG USA_AGENCY USA_ATCF_ID USA_LAT USA_LON USA_RECORD USA_STATUS USA_WIND USA_PRES USA_SSHS USA_R34_NE USA_R34_SE USA_R34_SW USA_R34_NW USA_R50_NE USA_R50_SE USA_R50_SW USA_R50_NW USA_R64_NE USA_R64_SE USA_R64_SW USA_R64_NW USA_POCI USA_ROCI USA_RMW USA_EYE TOKYO_LAT TOKYO_LON TOKYO_GRADE TOKYO_WIND TOKYO_PRES TOKYO_R50_DIR TOKYO_R50_LONG TOKYO_R50_SHORT TOKYO_R30_DIR TOKYO_R30_LONG TOKYO_R30_SHORT TOKYO_LAND CMA_LAT CMA_LON CMA_CAT CMA_WIND CMA_PRES HKO_LAT HKO_LON HKO_CAT HKO_WIND HKO_PRES NEWDELHI_LAT NEWDELHI_LON NEWDELHI_GRADE NEWDELHI_WIND NEWDELHI_PRES NEWDELHI_CI NEWDELHI_DP NEWDELHI_POCI REUNION_LAT REUNION_LON REUNION_TYPE REUNION_WIND REUNION_PRES REUNION_TNUM REUNION_CI REUNION_RMW REUNION_R34_NE REUNION_R34_SE REUNION_R34_SW REUNION_R34_NW REUNION_R50_NE REUNION_R50_SE REUNION_R50_SW REUNION_R50_NW REUNION_R64_NE REUNION_R64_SE REUNION_R64_SW REUNION_R64_NW BOM_LAT BOM_LON BOM_TYPE BOM_WIND BOM_PRES BOM_TNUM BOM_CI BOM_RMW BOM_R34_NE BOM_R34_SE BOM_R34_SW BOM_R34_NW BOM_R50_NE BOM_R50_SE BOM_R50_SW BOM_R50_NW BOM_R64_NE BOM_R64_SE BOM_R64_SW BOM_R64_NW BOM_ROCI BOM_POCI BOM_EYE BOM_POS_METHOD BOM_PRES_METHOD NADI_LAT NADI_LON NADI_CAT NADI_WIND NADI_PRES WELLINGTON_LAT WELLINGTON_LON WELLINGTON_WIND WELLINGTON_PRES DS824_LAT DS824_LON DS824_STAGE DS824_WIND DS824_PRES TD9636_LAT TD9636_LON TD9636_STAGE TD9636_WIND TD9636_PRES TD9635_LAT TD9635_LON TD9635_WIND TD9635_PRES TD9635_ROCI NEUMANN_LAT NEUMANN_LON NEUMANN_CLASS NEUMANN_WIND NEUMANN_PRES MLC_LAT MLC_LON MLC_CLASS MLC_WIND MLC_PRES USA_GUST BOM_GUST BOM_GUST_PER REUNION_GUST REUNION_GUST_PER USA_SEAHGT USA_SEARAD_NE USA_SEARAD_SE USA_SEARAD_SW USA_SEARAD_NW STORM_SPEED STORM_DIR
1955355S11082 1956 103 SI MM NOT_NAMED 1955-12-20 18:00:00 TS -10.5000 81.6000 main 1840 1840 O________OO___ jtwc_sh SH041956 -10.5000 81.6000 -1 -10.5000 81.6000 TC -10.5000 81.6000 7 12 221
1955355S11082 1956 103 SI MM NOT_NAMED 1955-12-20 21:00:00 TS -10.9601 81.1938 main 1894 1894 P________PP___ SH041956 -10.9727 81.1753 -1 -10.9727 81.1753 TC -10.9348 81.2309 7 12 221
1955355S11082 1956 103 SI MM NOT_NAMED 1955-12-21 00:00:00 TS -11.3819 80.8263 main 1938 1938 O________OP___ jtwc_sh SH041956 -11.4000 80.8000 -1 -11.4000 80.8000 TC -11.3456 80.8789 7 10 220
1955355S11082 1956 103 SI MM NOT_NAMED 1955-12-21 03:00:00 TS -11.7328 80.5291 main 1972 1972 P________PP___ SH041956 -11.7449 80.5124 -1 -11.7449 80.5124 TC -11.7085 80.5624 7 8 220
1955355S11082 1956 103 SI MM NOT_NAMED 1955-12-21 06:00:00 TS -12.0000 80.3000 main 2005 2005 O________OO___ jtwc_sh SH041956 -12.0000 80.3000 -1 -12.0000 80.3000 TC 25 -12.0000 80.3000 1 6 221
1955355S11082 1956 103 SI MM NOT_NAMED 1955-12-21 09:00:00 TS -12.1837 80.1243 main 2028 2028 P________PP___ SH041956 -12.1725 80.1349 -1 -12.1725 80.1349 TC 25 -12.2063 80.1032 1 4 224
1955355S11082 1956 103 SI MM NOT_NAMED 1955-12-21 12:00:00 TS -12.3174 79.9848 main 2040 2040 O________OP___ jtwc_sh SH041956 -12.3000 80.0000 -1 -12.3000 80.0000 TC 25 -12.3522 79.9543 1 4 226
1955355S11082 1956 103 SI MM NOT_NAMED 1955-12-21 15:00:00 TS -12.4523 79.8428 main 2063 2063 P________PP___ SH041956 -12.4425 79.8500 -1 -12.4425 79.8500 TC 25 -12.4720 79.8283 1 4 224
1955355S11082 1956 103 SI MM NOT_NAMED 1955-12-21 18:00:00 TS -12.6000 79.7000 main 2075 2075 O________OO___ jtwc_sh SH041956 -12.6000 79.7000 -1 -12.6000 79.7000 TC 25 -12.6000 79.7000 1 4 220
1955355S11082 1956 103 SI MM NOT_NAMED 1955-12-21 21:00:00 TS -12.7888 79.5490 main 2098 2098 P________PP___ SH041956 -12.7925 79.5575 -1 -12.7925 79.5575 TC 25 -12.7816 79.5322 1 5 218
1955355S11082 1956 103 SI MM NOT_NAMED 1955-12-22 00:00:00 TS -12.9925 79.3858 main 2121 2121 O________OP___ jtwc_sh SH041956 -13.0000 79.4000 -1 -13.0000 79.4000 TC 25 -12.9775 79.3574 1 5 220
1955355S11082 1956 103 SI MM NOT_NAMED 1955-12-22 03:00:00 TS -13.1949 79.1930 main 2145 2145 P________PP___ SH041956 -13.2000 79.2000 -1 -13.2000 79.2000 TC 25 -13.1847 79.1790 1 6 223
1955355S11082 1956 103 SI MM NOT_NAMED 1955-12-22 06:00:00 TS -13.4000 79.0000 main 2169 2169 O________OO___ jtwc_sh SH041956 -13.4000 79.0000 -1 -13.4000 79.0000 TC 25 -13.4000 79.0000 1 5 220
1955355S11082 1956 103 SI MM NOT_NAMED 1955-12-22 09:00:00 TS -13.6036 78.8403 main 2193 2193 P________PP___ SH041956 -13.5925 78.8499 -1 -13.5925 78.8499 TC 25 -13.6259 78.8209 1 5 216
1955355S11082 1956 103 SI MM NOT_NAMED 1955-12-22 12:00:00 TS -13.8192 78.6808 main 2217 2217 O________OP___ jtwc_sh SH041956 -13.8000 78.7000 -1 -13.8000 78.7000 TC 25 -13.8575 78.6425 1 6 217
1955355S11082 1956 103 SI MM NOT_NAMED 1955-12-22 15:00:00 TS -14.0668 78.4843 main 2252 2252 P________PP___ SH041956 -14.0575 78.4926 -1 -14.0575 78.4926 TC 25 -14.0853 78.4678 1 6 218
1955355S11082 1956 103 SI MM NOT_NAMED 1955-12-22 18:00:00 TS -14.3000 78.3000 main 2275 2261 O________OO___ jtwc_sh SH041956 -14.3000 78.3000 -1 -14.3000 78.3000 TC 25 -14.3000 78.3000 1 5 216
1955355S11082 1956 103 SI MM NOT_NAMED 1955-12-22 21:00:00 TS -14.4572 78.1888 main 2258 2244 P________PP___ SH041956 -14.4574 78.1999 -1 -14.4574 78.1999 TC 25 -14.4567 78.1666 1 4 215
1955355S11082 1956 103 SI MM NOT_NAMED 1955-12-23 00:00:00 TS -14.6016 78.0789 main 2244 2216 O________OP___ jtwc_sh SH041956 -14.6000 78.1000 -1 -14.6000 78.1000 TC 25 -14.6047 78.0366 1 4 220
1955355S11082 1956 103 SI MM NOT_NAMED 1955-12-23 03:00:00 TS -14.7718 77.9160 main 2216 2188 P________PP___ SH041956 -14.7700 77.9299 -1 -14.7700 77.9299 TC 25 -14.7754 77.8883 1 5 223
1955355S11082 1956 103 SI MM NOT_NAMED 1955-12-23 06:00:00 TS -15.0000 77.7000 main 2188 2147 O________OO___ jtwc_sh SH041956 -15.0000 77.7000 -1 -15.0000 77.7000 TC 25 -15.0000 77.7000 1 7 221
1955355S11082 1956 103 SI MM NOT_NAMED 1955-12-23 09:00:00 TS -15.3152 77.4244 main 2147 2103 P________PP___ SH041956 -15.3200 77.4150 -1 -15.3200 77.4150 TC 25 -15.3055 77.4432 1 9 219
1955355S11082 1956 103 SI MM NOT_NAMED 1955-12-23 12:00:00 TS -15.6892 77.1150 main 2103 2060 O________OP___ jtwc_sh SH041956 -15.7000 77.1000 -1 -15.7000 77.1000 TC 25 -15.6677 77.1451 1 10 218
1955355S11082 1956 103 SI MM NOT_NAMED 1955-12-23 15:00:00 TS -16.0803 76.8080 main 2060 2017 P________PP___ SH041956 -16.0850 76.7999 -1 -16.0850 76.7999 TC 25 -16.0711 76.8243 1 10 216
1955355S11082 1956 103 SI MM NOT_NAMED 1955-12-23 18:00:00 TS -16.5000 76.5000 main 2017 1975 O________OO___ jtwc_sh SH041956 -16.5000 76.5000 -1 -16.5000 76.5000 TC 25 -16.5000 76.5000 1 10 214
1955355S11082 1956 103 SI MM NOT_NAMED 1955-12-23 21:00:00 TS -16.9419 76.1932 main 1975 1931 P________PP___ SH041956 -16.9425 76.1999 -1 -16.9425 76.1999 TC 25 -16.9407 76.1799 1 11 213
1955355S11082 1956 103 SI MM NOT_NAMED 1955-12-24 00:00:00 TS -17.4000 75.8876 main 1931 1890 O________OP___ jtwc_sh SH041956 -17.4000 75.9000 -1 -17.4000 75.9000 TC 25 -17.4001 75.8629 1 11 213
1955355S11082 1956 103 SI MM NOT_NAMED 1955-12-24 03:00:00 TS -17.8582 75.5781 main 1888 1849 P________PP___ SH041956 -17.8575 75.5850 -1 -17.8575 75.5850 TC 25 -17.8595 75.5643 1 11 212
1955355S11082 1956 103 SI MM NOT_NAMED 1955-12-24 06:00:00 TS -18.3000 75.3000 main 1849 1821 O________OO___ jtwc_sh SH041956 -18.3000 75.3000 -1 -18.3000 75.3000 TC 25 -18.3000 75.3000 1 10 209
1955355S11082 1956 103 SI MM NOT_NAMED 1955-12-24 09:00:00 TS -18.7101 75.0797 main 1821 1794 P________PP___ SH041956 -18.7149 75.0773 -1 -18.7149 75.0773 TC 25 -18.7004 75.0844 1 9 205
1955355S11082 1956 103 SI MM NOT_NAMED 1955-12-24 12:00:00 TS -19.0932 74.9014 main 1794 1779 O________OP___ jtwc_sh SH041956 -19.1000 74.9000 -1 -19.1000 74.9000 TC 25 -19.0797 74.9042 1 8 203
1955355S11082 1956 103 SI MM NOT_NAMED 1955-12-24 15:00:00 TS -19.4530 74.7439 main 1768 1754 P________PP___ SH041956 -19.4575 74.7424 -1 -19.4575 74.7424 TC 25 -19.4442 74.7470 1 8 202
1955355S11082 1956 103 SI MM NOT_NAMED 1955-12-24 18:00:00 TS -19.8000 74.6000 main 1754 1741 O________OO___ jtwc_sh SH041956 -19.8000 74.6000 -1 -19.8000 74.6000 TC 25 -19.8000 74.6000 1 8 202
1955355S11082 1956 103 SI MM NOT_NAMED 1955-12-24 21:00:00 TS -20.1508 74.4509 main 1741 1718 P________PP___ SH041956 -20.1500 74.4499 -1 -20.1500 74.4499 TC 25 -20.1523 74.4527 1 8 202
1955355S11082 1956 103 SI MM NOT_NAMED 1955-12-25 00:00:00 TS -20.5009 74.3011 main 1718 1707 O________OP___ jtwc_sh SH041956 -20.5000 74.3000 -1 -20.5000 74.3000 TC 25 -20.5027 74.3033 1 8 202
1955355S11082 1956 103 SI MM NOT_NAMED 1955-12-25 03:00:00 TS -20.8506 74.1508 main 1707 1686 P________PP___ SH041956 -20.8500 74.1501 -1 -20.8500 74.1501 TC 25 -20.8517 74.1522 1 8 202
1955355S11082 1956 103 SI MM NOT_NAMED 1955-12-25 06:00:00 TS -21.2000 74.0000 main 1686 O________OO___ jtwc_sh SH041956 -21.2000 74.0000 -1 -21.2000 74.0000 TC 25 -21.2000 74.0000 1 8 202

About IBTrACS Database

This database is a web-friendly format of International Best Track Archive for Climate Stewardship (IBTrACS), a global best track data archive curated by NOAA dating back to 1842.

Updated: 2021-11-26